Kincaid, Canada
Current Conditions -  °F | °C
As of 5:00 PM on Friday 24 Oct 2014 (Local Time) from CYYN Reporting Station
Clear Clear  
Wind Chill: 52°   Ceiling: Unl
Heat Index: 52°   Visibility: 9mi
Dew Point: 28°   Wind: 15mph
Humidity: 41%   Direction: 290°WNW
Pressure: 29.94"   Gusts: 21mph
Location:  49.67°N, 107°W
Report Text: CYYN 242300Z AUTO 29013G18KT 9SM CLR 11/M02 A2994 RMK SLP149 DENSITY ALT 2700FT
Loading
Personal Weather Stations






























Interactive Weather Map
Tropical Storm Tracking
New forecast layout! Learn more

10-Day Weather Forecast

Advertisements
Track Severe Weather on mobile